»·PEaware :: UPS1780 KDEN-KBOI

UPS1780 :: KDEN-KBOI

FLIGHT INFORMATION

Flight Status: Arrived
Operator:
United Parcel Service
More flights by this operator :: More flights under this callsign
Pilot: Will K. (13011)
Aircraft: BOEING 747-400 (WINGLETS)
(B744)
More flights by this aircraft type
Origin: KDEN Denver Intl
United States
Destination: KBOI Boise Air Terminal/Gowen
United States
More flights between these airports :: More routes between these airports
Route: FOOOT3 RLG MLD REAPS KOURT3
File this flight plan on PilotEdge
Remarks:
Altitude:
(Current/Filed)
36,000ft
Speed:
(Current/Filed)
350kts
Departed: 09-Mar-18 10:55 AM
Arrived: 09-Mar-18 12:42 PM
Distance/Time
Traveled:
564nm/1:46
Distance/Time
To Go:
Arrived

Flight Plot

Page will automatically refresh every two minutes.

Flight plan parsing failed; only flown route is shown


Map Options




Map Legend


Flown Route
Filed Route
Departure Airport
Arrival Airport
Navaid (VOR, NDB)
Fix

Horizontal Profiles

Position Reports

Time Latitude Longitude Heading Altitude Ground
Speed
09-Mar-18 10:30 39.830752 -104.679689 180 5444ft 0kts
09-Mar-18 10:31 39.830752 -104.679689 180 5444ft 0kts
09-Mar-18 10:32 39.830752 -104.679689 180 5444ft 0kts
09-Mar-18 10:33 39.830752 -104.679689 180 5444ft 0kts
09-Mar-18 10:34 39.830752 -104.679689 180 5444ft 0kts
09-Mar-18 10:35 39.830752 -104.679689 180 5444ft 0kts
09-Mar-18 10:36 39.830752 -104.679689 180 5444ft 0kts
09-Mar-18 10:37 39.830752 -104.679689 180 5444ft 0kts
09-Mar-18 10:38 39.830752 -104.679689 180 5444ft 0kts
09-Mar-18 10:39 39.830752 -104.679689 180 5444ft 0kts
09-Mar-18 10:40 39.830752 -104.679689 180 5444ft 0kts
09-Mar-18 10:41 39.830752 -104.679689 180 5444ft 0kts
09-Mar-18 10:42 39.830752 -104.679689 180 5444ft 0kts
09-Mar-18 10:43 39.830752 -104.679689 180 5444ft 0kts
09-Mar-18 10:44 39.830752 -104.679689 180 5444ft 0kts
09-Mar-18 10:45 39.830752 -104.679689 180 5444ft 0kts
09-Mar-18 10:46 39.830752 -104.679689 180 5444ft 0kts
09-Mar-18 10:47 39.828950 -104.677331 159 5444ft 20kts
09-Mar-18 10:48 39.828430 -104.668225 90 5444ft 24kts
09-Mar-18 10:49 39.828393 -104.662699 91 5444ft 0kts
09-Mar-18 10:50 39.828393 -104.662696 91 5444ft 0kts
09-Mar-18 10:51 39.828393 -104.662695 91 5444ft 0kts
09-Mar-18 10:52 39.828393 -104.662695 91 5444ft 0kts
09-Mar-18 10:53 39.828708 -104.660763 33 5444ft 21kts
09-Mar-18 10:54 39.857567 -104.660146 359 5625ft 204kts
09-Mar-18 10:55 39.903016 -104.706625 284 7317ft 255kts
09-Mar-18 10:56 39.919360 -104.804526 287 9644ft 280kts
09-Mar-18 10:57 39.941675 -104.900575 282 10346ft 275kts
09-Mar-18 10:58 39.947280 -104.999469 276 13082ft 281kts
09-Mar-18 10:59 39.959838 -105.104843 279 15816ft 292kts
09-Mar-18 11:00 39.971599 -105.206838 279 19134ft 278kts
09-Mar-18 11:01 39.983988 -105.315872 276 20122ft 340kts
09-Mar-18 11:02 39.982046 -105.438483 269 23346ft 333kts
09-Mar-18 11:03 39.978215 -105.557021 270 26353ft 318kts
09-Mar-18 11:04 39.974856 -105.670369 270 28756ft 307kts
09-Mar-18 11:04 39.973047 -105.762123 270 30290ft 304kts
09-Mar-18 11:06 39.972719 -105.900178 274 30600ft 350kts
09-Mar-18 11:07 39.980721 -106.033773 275 31018ft 387kts
09-Mar-18 11:07 39.987605 -106.150781 274 32613ft 383kts
09-Mar-18 11:09 39.995922 -106.311118 274 34534ft 379kts
09-Mar-18 11:09 40.003058 -106.425312 283 35580ft 379kts
09-Mar-18 11:10 40.046253 -106.551844 294 36060ft 382kts
09-Mar-18 11:11 40.095582 -106.674439 293 36058ft 381kts
09-Mar-18 11:12 40.144628 -106.797557 293 36056ft 381kts
09-Mar-18 11:13 40.193921 -106.920034 293 36059ft 380kts
09-Mar-18 11:14 40.242848 -107.042372 293 36064ft 380kts
09-Mar-18 11:16 40.291841 -107.165970 293 36065ft 389kts
09-Mar-18 11:17 40.342233 -107.293795 293 36062ft 397kts
09-Mar-18 11:18 40.392832 -107.422730 293 36053ft 396kts
09-Mar-18 11:19 40.443099 -107.551391 292 36041ft 397kts
09-Mar-18 11:20 40.493295 -107.680428 292 36043ft 400kts
09-Mar-18 11:21 40.544148 -107.811728 292 36040ft 403kts
09-Mar-18 11:22 40.594712 -107.942863 292 36038ft 402kts
09-Mar-18 11:23 40.645031 -108.073945 292 36035ft 402kts
09-Mar-18 11:24 40.695508 -108.206029 292 36033ft 403kts
09-Mar-18 11:25 40.745584 -108.337650 292 36034ft 402kts
09-Mar-18 11:26 40.795688 -108.469932 292 36033ft 403kts
09-Mar-18 11:27 40.845574 -108.602243 292 36031ft 403kts
09-Mar-18 11:28 40.895278 -108.734688 292 36029ft 403kts
09-Mar-18 11:29 40.945007 -108.867796 292 36019ft 403kts
09-Mar-18 11:30 40.994400 -109.000608 291 36010ft 403kts
09-Mar-18 11:31 41.043840 -109.134160 291 36020ft 403kts
09-Mar-18 11:32 41.093006 -109.267589 291 36021ft 403kts
09-Mar-18 11:33 41.142000 -109.401167 291 36021ft 403kts
09-Mar-18 11:34 41.191038 -109.535486 291 36024ft 404kts
09-Mar-18 11:35 41.239789 -109.669648 291 36028ft 404kts
09-Mar-18 11:36 41.288397 -109.804049 291 36034ft 404kts
09-Mar-18 11:37 41.337017 -109.939119 291 36040ft 404kts
09-Mar-18 11:38 41.385327 -110.073963 290 36044ft 404kts
09-Mar-18 11:39 41.433712 -110.209662 290 36047ft 404kts
09-Mar-18 11:40 41.481767 -110.345084 290 36048ft 404kts
09-Mar-18 11:41 41.529656 -110.480682 290 36048ft 404kts
09-Mar-18 11:42 41.577554 -110.616966 290 36046ft 404kts
09-Mar-18 11:43 41.625127 -110.752977 290 36044ft 404kts
09-Mar-18 11:44 41.672583 -110.889321 290 36047ft 405kts
09-Mar-18 11:45 41.720107 -111.026528 290 36047ft 405kts
09-Mar-18 11:46 41.767287 -111.163407 290 36051ft 404kts
09-Mar-18 11:47 41.814215 -111.300234 290 35764ft 400kts
09-Mar-18 11:48 41.860260 -111.435139 289 32848ft 398kts
09-Mar-18 11:49 41.906355 -111.570857 289 29847ft 391kts
09-Mar-18 11:50 41.951072 -111.703158 289 27137ft 383kts
09-Mar-18 11:51 41.994485 -111.832214 290 24561ft 375kts
09-Mar-18 11:52 42.037284 -111.960029 290 24129ft 376kts
09-Mar-18 11:53 42.080260 -112.088113 290 24054ft 376kts
09-Mar-18 11:54 42.122918 -112.216522 290 24051ft 376kts
09-Mar-18 11:55 42.165287 -112.345601 290 24047ft 376kts
09-Mar-18 11:56 42.212002 -112.471448 300 24045ft 380kts
09-Mar-18 11:57 42.278857 -112.583841 303 24043ft 386kts
09-Mar-18 11:58 42.346613 -112.696516 303 24043ft 385kts
09-Mar-18 11:59 42.413713 -112.809305 303 24037ft 386kts
09-Mar-18 12:00 42.481582 -112.922223 303 24032ft 385kts
09-Mar-18 12:01 42.548761 -113.035308 302 24028ft 385kts
09-Mar-18 12:02 42.615819 -113.148891 302 24026ft 386kts
09-Mar-18 12:03 42.682960 -113.263055 302 24023ft 386kts
09-Mar-18 12:04 42.749736 -113.377062 302 24017ft 386kts
09-Mar-18 12:05 42.816488 -113.491461 302 24015ft 386kts
09-Mar-18 12:06 42.883329 -113.606456 302 24014ft 386kts
09-Mar-18 12:07 42.949510 -113.720760 301 24009ft 385kts
09-Mar-18 12:08 43.016242 -113.835688 301 24011ft 385kts
09-Mar-18 12:09 43.082151 -113.950807 301 24011ft 384kts
09-Mar-18 12:10 43.147789 -114.065917 300 24006ft 384kts
09-Mar-18 12:11 43.184996 -114.198580 281 22928ft 365kts
09-Mar-18 12:12 43.210091 -114.331625 281 20550ft 356kts
09-Mar-18 12:13 43.234718 -114.460703 282 19163ft 346kts
09-Mar-18 12:14 43.259244 -114.589204 282 19004ft 349kts
09-Mar-18 12:15 43.283075 -114.714359 283 17737ft 326kts
09-Mar-18 12:16 43.304383 -114.824624 281 17365ft 272kts
09-Mar-18 12:17 43.322839 -114.923423 281 15666ft 267kts
09-Mar-18 12:18 43.341148 -115.022018 281 14192ft 266kts
09-Mar-18 12:19 43.359503 -115.121001 281 14012ft 267kts
09-Mar-18 12:20 43.377755 -115.219476 281 14001ft 269kts
09-Mar-18 12:21 43.396071 -115.319739 282 12766ft 267kts
09-Mar-18 12:22 43.414229 -115.417984 281 12218ft 262kts
09-Mar-18 12:23 43.432019 -115.515718 281 10577ft 266kts
09-Mar-18 12:24 43.452485 -115.613982 290 9603ft 267kts
09-Mar-18 12:25 43.483504 -115.707359 291 9295ft 261kts
09-Mar-18 12:26 43.513059 -115.798319 291 8920ft 263kts
09-Mar-18 12:27 43.542905 -115.890212 291 8603ft 256kts
09-Mar-18 12:28 43.569997 -115.974540 291 8114ft 224kts
09-Mar-18 12:29 43.595332 -116.053052 292 7952ft 224kts
09-Mar-18 12:30 43.622200 -116.131310 292 8016ft 223kts
09-Mar-18 12:31 43.648921 -116.209192 292 8019ft 225kts
09-Mar-18 12:32 43.675793 -116.287356 292 8012ft 224kts
09-Mar-18 12:33 43.702338 -116.364518 293 6434ft 222kts
09-Mar-18 12:34 43.725865 -116.443117 267 4978ft 222kts
09-Mar-18 12:35 43.681053 -116.492878 186 5014ft 212kts
09-Mar-18 12:36 43.640487 -116.446633 124 5013ft 182kts
09-Mar-18 12:37 43.619561 -116.387985 117 5039ft 170kts
09-Mar-18 12:38 43.599999 -116.330515 116 4201ft 157kts
09-Mar-18 12:39 43.581560 -116.276542 115 3337ft 152kts
09-Mar-18 12:40 43.564960 -116.227783 114 2847ft 85kts
09-Mar-18 12:41 43.560353 -116.218281 294 2847ft 24kts
09-Mar-18 12:42 43.563007 -116.226155 293 2847ft 19kts
09-Mar-18 12:43 43.565480 -116.233755 293 2847ft 16kts
09-Mar-18 12:44 43.565939 -116.241820 262 2847ft 0kts

Navigation Log

Ident Type
Flight plan parsing failed, navigation log unavailable